< < Back
Terminal Aerodrome Forecast


Current Version              Previous Versions:   1  2  3  4  5  6  7  8  9  

Terminal Aerodrome Forecast

637
FTUS42 KCHS 251300 CCA
TAFSAV
TAF COR
KSAV 251347Z 2513/2612 27007KT P6SM BKN250
     FM251900 19008KT P6SM SCT250
     FM260500 22009KT P6SM SCT020 BKN150=

Latest METAR

184
SAUS80 KWBC 260600 RRD
MTRSAV
METAR KSAV 260553Z AUTO 20006KT 10SM FEW036 10/05 A2981 RMK AO2 SLP095
T01000050 10106 20067 58021 TSNO


USA.gov is the U.S. government's official web portal to all federal, state and local government web resources and services.